sensor_id;sensor_type;location;lat;lon;timestamp;P1;durP1;ratioP1;P2;durP2;ratioP2
69197;SDS011;56311;50.298;8.514;2023-10-19T00:00:00;11.2;;;8.3;;
69197;SDS011;56311;50.298;8.514;2023-10-19T00:02:00;11.0;;;8.7;;
69197;SDS011;56311;50.298;8.514;2023-10-19T00:04:00;11.5;;;8.9;;
69197;SDS011;56311;50.298;8.514;2023-10-19T00:06:00;12.3;;;8.6;;
69197;SDS011;56311;50.298;8.514;2023-10-19T00:08:00;12.3;;;8.5;;
69197;SDS011;56311;50.298;8.514;2023-10-19T00:10:00;11.1;;;8.0;;
69197;SDS011;56311;50.298;8.514;2023-10-19T00:12:00;9.4;;;7.3;;
69197;SDS011;56311;50.298;8.514;2023-10-19T00:14:00;9.9;;;7.1;;
69197;SDS011;56311;50.298;8.514;2023-10-19T00:16:01;9.8;;;7.3;;
69197;SDS011;56311;50.298;8.514;2023-10-19T00:18:00;10.6;;;7.4;;
69197;SDS011;56311;50.298;8.514;2023-10-19T00:20:00;9.4;;;6.5;;
69197;SDS011;56311;50.298;8.514;2023-10-19T00:22:00;8.6;;;6.4;;
69197;SDS011;56311;50.298;8.514;2023-10-19T00:24:00;10.1;;;6.8;;
69197;SDS011;56311;50.298;8.514;2023-10-19T00:26:01;8.7;;;6.0;;
69197;SDS011;56311;50.298;8.514;2023-10-19T00:28:00;7.5;;;5.0;;
69197;SDS011;56311;50.298;8.514;2023-10-19T00:30:00;6.4;;;4.9;;
69197;SDS011;56311;50.298;8.514;2023-10-19T00:32:00;7.2;;;5.3;;
69197;SDS011;56311;50.298;8.514;2023-10-19T00:34:00;8.0;;;5.1;;
69197;SDS011;56311;50.298;8.514;2023-10-19T00:36:00;7.3;;;5.1;;
69197;SDS011;56311;50.298;8.514;2023-10-19T00:38:00;7.4;;;4.9;;
69197;SDS011;56311;50.298;8.514;2023-10-19T00:40:00;7.8;;;4.6;;
69197;SDS011;56311;50.298;8.514;2023-10-19T00:42:01;7.2;;;4.7;;
69197;SDS011;56311;50.298;8.514;2023-10-19T00:44:00;5.4;;;3.5;;
69197;SDS011;56311;50.298;8.514;2023-10-19T00:46:00;5.5;;;2.7;;
69197;SDS011;56311;50.298;8.514;2023-10-19T00:48:00;3.9;;;2.1;;
69197;SDS011;56311;50.298;8.514;2023-10-19T00:50:00;3.8;;;2.2;;
69197;SDS011;56311;50.298;8.514;2023-10-19T00:52:00;4.3;;;2.3;;
69197;SDS011;56311;50.298;8.514;2023-10-19T00:54:01;3.9;;;1.7;;
69197;SDS011;56311;50.298;8.514;2023-10-19T00:56:00;3.9;;;1.9;;
69197;SDS011;56311;50.298;8.514;2023-10-19T00:58:00;4.8;;;2.8;;
69197;SDS011;56311;50.298;8.514;2023-10-19T01:00:01;4.1;;;2.6;;
69197;SDS011;56311;50.298;8.514;2023-10-19T01:02:00;6.2;;;3.3;;
69197;SDS011;56311;50.298;8.514;2023-10-19T01:04:00;6.3;;;3.5;;
69197;SDS011;56311;50.298;8.514;2023-10-19T01:06:00;6.9;;;3.8;;
69197;SDS011;56311;50.298;8.514;2023-10-19T01:08:00;6.5;;;4.1;;
69197;SDS011;56311;50.298;8.514;2023-10-19T01:10:01;6.3;;;4.3;;
69197;SDS011;56311;50.298;8.514;2023-10-19T01:12:00;8.1;;;4.6;;
69197;SDS011;56311;50.298;8.514;2023-10-19T01:14:00;8.4;;;5.0;;
69197;SDS011;56311;50.298;8.514;2023-10-19T01:16:00;6.7;;;4.5;;
69197;SDS011;56311;50.298;8.514;2023-10-19T01:18:00;8.9;;;4.8;;
69197;SDS011;56311;50.298;8.514;2023-10-19T01:20:00;8.8;;;4.7;;
69197;SDS011;56311;50.298;8.514;2023-10-19T01:22:00;9.2;;;5.4;;
69197;SDS011;56311;50.298;8.514;2023-10-19T01:24:00;10.3;;;6.2;;
69197;SDS011;56311;50.298;8.514;2023-10-19T01:26:00;9.3;;;5.9;;
69197;SDS011;56311;50.298;8.514;2023-10-19T01:28:01;8.7;;;5.8;;
69197;SDS011;56311;50.298;8.514;2023-10-19T01:30:00;10.8;;;7.3;;
69197;SDS011;56311;50.298;8.514;2023-10-19T01:32:00;9.9;;;6.8;;
69197;SDS011;56311;50.298;8.514;2023-10-19T01:34:00;10.0;;;6.9;;
69197;SDS011;56311;50.298;8.514;2023-10-19T01:36:00;11.0;;;7.5;;
69197;SDS011;56311;50.298;8.514;2023-10-19T01:38:00;9.7;;;7.0;;
69197;SDS011;56311;50.298;8.514;2023-10-19T01:40:00;10.0;;;7.0;;
69197;SDS011;56311;50.298;8.514;2023-10-19T01:42:00;11.7;;;7.4;;
69197;SDS011;56311;50.298;8.514;2023-10-19T01:44:00;11.4;;;7.6;;
69197;SDS011;56311;50.298;8.514;2023-10-19T01:46:00;9.6;;;6.8;;
69197;SDS011;56311;50.298;8.514;2023-10-19T01:48:00;11.9;;;7.2;;
69197;SDS011;56311;50.298;8.514;2023-10-19T01:50:00;9.5;;;6.5;;
69197;SDS011;56311;50.298;8.514;2023-10-19T01:52:00;9.4;;;6.6;;
69197;SDS011;56311;50.298;8.514;2023-10-19T01:54:00;11.4;;;6.7;;
69197;SDS011;56311;50.298;8.514;2023-10-19T01:56:00;11.5;;;7.3;;
69197;SDS011;56311;50.298;8.514;2023-10-19T01:58:00;11.0;;;7.6;;
69197;SDS011;56311;50.298;8.514;2023-10-19T02:00:00;13.1;;;8.1;;
69197;SDS011;56311;50.298;8.514;2023-10-19T02:02:00;12.1;;;7.8;;
69197;SDS011;56311;50.298;8.514;2023-10-19T02:04:02;13.4;;;8.8;;
69197;SDS011;56311;50.298;8.514;2023-10-19T02:06:01;14.8;;;9.6;;
69197;SDS011;56311;50.298;8.514;2023-10-19T02:08:00;14.4;;;9.8;;
69197;SDS011;56311;50.298;8.514;2023-10-19T02:10:00;16.1;;;10.2;;
69197;SDS011;56311;50.298;8.514;2023-10-19T02:12:00;14.9;;;10.2;;
69197;SDS011;56311;50.298;8.514;2023-10-19T02:14:00;17.7;;;10.9;;
69197;SDS011;56311;50.298;8.514;2023-10-19T02:16:00;18.1;;;12.1;;
69197;SDS011;56311;50.298;8.514;2023-10-19T02:18:02;18.2;;;12.6;;
69197;SDS011;56311;50.298;8.514;2023-10-19T02:20:00;17.5;;;11.8;;
69197;SDS011;56311;50.298;8.514;2023-10-19T02:22:01;17.4;;;11.4;;
69197;SDS011;56311;50.298;8.514;2023-10-19T02:24:00;18.8;;;12.3;;
69197;SDS011;56311;50.298;8.514;2023-10-19T02:26:00;19.9;;;13.1;;
69197;SDS011;56311;50.298;8.514;2023-10-19T02:28:00;18.2;;;12.4;;
69197;SDS011;56311;50.298;8.514;2023-10-19T02:30:00;18.0;;;12.2;;
69197;SDS011;56311;50.298;8.514;2023-10-19T02:32:00;17.7;;;11.7;;
69197;SDS011;56311;50.298;8.514;2023-10-19T02:34:00;16.9;;;11.5;;
69197;SDS011;56311;50.298;8.514;2023-10-19T02:36:00;17.4;;;11.6;;
69197;SDS011;56311;50.298;8.514;2023-10-19T02:38:00;19.0;;;12.1;;
69197;SDS011;56311;50.298;8.514;2023-10-19T02:40:00;19.0;;;12.5;;
69197;SDS011;56311;50.298;8.514;2023-10-19T02:42:00;19.4;;;12.8;;
69197;SDS011;56311;50.298;8.514;2023-10-19T02:44:00;18.9;;;12.4;;
69197;SDS011;56311;50.298;8.514;2023-10-19T02:46:00;19.5;;;12.5;;
69197;SDS011;56311;50.298;8.514;2023-10-19T02:48:00;18.9;;;12.3;;
69197;SDS011;56311;50.298;8.514;2023-10-19T02:50:00;18.7;;;12.4;;
69197;SDS011;56311;50.298;8.514;2023-10-19T02:52:00;20.1;;;12.7;;
69197;SDS011;56311;50.298;8.514;2023-10-19T02:54:00;18.9;;;12.1;;
69197;SDS011;56311;50.298;8.514;2023-10-19T02:56:08;18.0;;;11.4;;
69197;SDS011;56311;50.298;8.514;2023-10-19T02:58:00;17.5;;;11.1;;
69197;SDS011;56311;50.298;8.514;2023-10-19T03:00:00;17.3;;;11.3;;
69197;SDS011;56311;50.298;8.514;2023-10-19T03:02:00;17.0;;;11.1;;
69197;SDS011;56311;50.298;8.514;2023-10-19T03:04:00;15.8;;;10.6;;
69197;SDS011;56311;50.298;8.514;2023-10-19T03:06:00;17.6;;;10.8;;
69197;SDS011;56311;50.298;8.514;2023-10-19T03:08:01;14.9;;;10.6;;
69197;SDS011;56311;50.298;8.514;2023-10-19T03:10:00;15.3;;;10.3;;
69197;SDS011;56311;50.298;8.514;2023-10-19T03:12:01;15.8;;;10.2;;
69197;SDS011;56311;50.298;8.514;2023-10-19T03:14:00;17.0;;;10.4;;
69197;SDS011;56311;50.298;8.514;2023-10-19T03:16:00;15.1;;;10.6;;
69197;SDS011;56311;50.298;8.514;2023-10-19T03:18:00;17.2;;;10.6;;
69197;SDS011;56311;50.298;8.514;2023-10-19T03:20:00;15.1;;;10.7;;
69197;SDS011;56311;50.298;8.514;2023-10-19T03:22:00;15.1;;;10.2;;
69197;SDS011;56311;50.298;8.514;2023-10-19T03:24:00;14.8;;;9.6;;
69197;SDS011;56311;50.298;8.514;2023-10-19T03:26:00;15.3;;;9.8;;
69197;SDS011;56311;50.298;8.514;2023-10-19T03:28:00;16.3;;;10.9;;
69197;SDS011;56311;50.298;8.514;2023-10-19T03:30:00;19.5;;;11.9;;
69197;SDS011;56311;50.298;8.514;2023-10-19T03:32:00;20.8;;;12.0;;
69197;SDS011;56311;50.298;8.514;2023-10-19T03:34:00;21.3;;;12.6;;
69197;SDS011;56311;50.298;8.514;2023-10-19T03:36:00;19.7;;;11.9;;
69197;SDS011;56311;50.298;8.514;2023-10-19T03:38:00;21.5;;;12.7;;
69197;SDS011;56311;50.298;8.514;2023-10-19T03:40:00;18.5;;;12.2;;
69197;SDS011;56311;50.298;8.514;2023-10-19T03:42:01;18.3;;;11.8;;
69197;SDS011;56311;50.298;8.514;2023-10-19T03:44:00;17.0;;;11.4;;
69197;SDS011;56311;50.298;8.514;2023-10-19T03:46:01;18.6;;;11.0;;
69197;SDS011;56311;50.298;8.514;2023-10-19T03:48:00;18.3;;;11.0;;
69197;SDS011;56311;50.298;8.514;2023-10-19T03:50:00;16.8;;;10.4;;
69197;SDS011;56311;50.298;8.514;2023-10-19T03:52:00;17.3;;;11.0;;
69197;SDS011;56311;50.298;8.514;2023-10-19T03:54:00;18.4;;;11.4;;
69197;SDS011;56311;50.298;8.514;2023-10-19T03:56:03;17.4;;;10.6;;
69197;SDS011;56311;50.298;8.514;2023-10-19T03:58:00;17.3;;;11.3;;
69197;SDS011;56311;50.298;8.514;2023-10-19T04:00:00;18.0;;;11.1;;
69197;SDS011;56311;50.298;8.514;2023-10-19T04:02:00;17.1;;;11.4;;
69197;SDS011;56311;50.298;8.514;2023-10-19T04:04:00;16.7;;;11.3;;
69197;SDS011;56311;50.298;8.514;2023-10-19T04:06:00;16.1;;;10.5;;
69197;SDS011;56311;50.298;8.514;2023-10-19T04:08:00;17.9;;;11.1;;
69197;SDS011;56311;50.298;8.514;2023-10-19T04:10:00;16.6;;;10.9;;
69197;SDS011;56311;50.298;8.514;2023-10-19T04:12:00;15.7;;;10.3;;
69197;SDS011;56311;50.298;8.514;2023-10-19T04:14:00;18.8;;;10.8;;
69197;SDS011;56311;50.298;8.514;2023-10-19T04:16:00;15.8;;;10.4;;
69197;SDS011;56311;50.298;8.514;2023-10-19T04:18:00;15.3;;;10.0;;
69197;SDS011;56311;50.298;8.514;2023-10-19T04:20:00;16.5;;;9.3;;
69197;SDS011;56311;50.298;8.514;2023-10-19T04:22:01;13.8;;;9.4;;
69197;SDS011;56311;50.298;8.514;2023-10-19T04:24:00;14.3;;;9.7;;
69197;SDS011;56311;50.298;8.514;2023-10-19T04:26:00;14.0;;;9.1;;
69197;SDS011;56311;50.298;8.514;2023-10-19T04:28:00;15.8;;;9.7;;
69197;SDS011;56311;50.298;8.514;2023-10-19T04:30:00;14.1;;;9.4;;
69197;SDS011;56311;50.298;8.514;2023-10-19T04:32:01;15.2;;;9.1;;
69197;SDS011;56311;50.298;8.514;2023-10-19T04:34:00;14.0;;;9.1;;
69197;SDS011;56311;50.298;8.514;2023-10-19T04:36:00;13.3;;;9.1;;
69197;SDS011;56311;50.298;8.514;2023-10-19T04:38:00;13.2;;;9.1;;
69197;SDS011;56311;50.298;8.514;2023-10-19T04:40:00;14.3;;;9.2;;
69197;SDS011;56311;50.298;8.514;2023-10-19T04:42:00;14.3;;;9.3;;
69197;SDS011;56311;50.298;8.514;2023-10-19T04:44:00;15.3;;;10.5;;
69197;SDS011;56311;50.298;8.514;2023-10-19T04:46:00;15.2;;;10.2;;
69197;SDS011;56311;50.298;8.514;2023-10-19T04:48:00;15.8;;;10.5;;
69197;SDS011;56311;50.298;8.514;2023-10-19T04:50:00;17.8;;;11.4;;
69197;SDS011;56311;50.298;8.514;2023-10-19T04:52:00;18.6;;;11.7;;
69197;SDS011;56311;50.298;8.514;2023-10-19T04:54:00;17.7;;;11.6;;
69197;SDS011;56311;50.298;8.514;2023-10-19T04:56:00;18.4;;;11.9;;
69197;SDS011;56311;50.298;8.514;2023-10-19T04:58:00;17.8;;;12.0;;
69197;SDS011;56311;50.298;8.514;2023-10-19T05:00:00;19.5;;;12.4;;
69197;SDS011;56311;50.298;8.514;2023-10-19T05:02:00;22.2;;;12.9;;
69197;SDS011;56311;50.298;8.514;2023-10-19T05:04:00;18.0;;;12.1;;
69197;SDS011;56311;50.298;8.514;2023-10-19T05:06:00;17.9;;;12.0;;
69197;SDS011;56311;50.298;8.514;2023-10-19T05:08:00;19.6;;;12.4;;
69197;SDS011;56311;50.298;8.514;2023-10-19T05:10:00;19.9;;;12.0;;
69197;SDS011;56311;50.298;8.514;2023-10-19T05:12:00;20.1;;;12.4;;
69197;SDS011;56311;50.298;8.514;2023-10-19T05:14:00;18.9;;;12.4;;
69197;SDS011;56311;50.298;8.514;2023-10-19T05:16:00;18.6;;;12.5;;
69197;SDS011;56311;50.298;8.514;2023-10-19T05:18:00;17.7;;;11.5;;
69197;SDS011;56311;50.298;8.514;2023-10-19T05:20:00;20.2;;;12.7;;
69197;SDS011;56311;50.298;8.514;2023-10-19T05:22:01;16.4;;;11.4;;
69197;SDS011;56311;50.298;8.514;2023-10-19T05:24:00;17.3;;;11.9;;
69197;SDS011;56311;50.298;8.514;2023-10-19T05:26:00;17.8;;;12.1;;
69197;SDS011;56311;50.298;8.514;2023-10-19T05:28:00;20.4;;;12.4;;
69197;SDS011;56311;50.298;8.514;2023-10-19T05:30:00;20.6;;;13.5;;
69197;SDS011;56311;50.298;8.514;2023-10-19T05:32:00;23.4;;;14.1;;
69197;SDS011;56311;50.298;8.514;2023-10-19T05:34:00;20.6;;;12.8;;
69197;SDS011;56311;50.298;8.514;2023-10-19T05:36:00;23.2;;;14.0;;
69197;SDS011;56311;50.298;8.514;2023-10-19T05:38:00;18.6;;;12.3;;
69197;SDS011;56311;50.298;8.514;2023-10-19T05:40:00;21.0;;;13.5;;
69197;SDS011;56311;50.298;8.514;2023-10-19T05:42:00;16.9;;;11.9;;
69197;SDS011;56311;50.298;8.514;2023-10-19T05:44:00;18.5;;;12.1;;
69197;SDS011;56311;50.298;8.514;2023-10-19T05:46:00;20.6;;;12.1;;
69197;SDS011;56311;50.298;8.514;2023-10-19T05:48:00;15.7;;;11.2;;
69197;SDS011;56311;50.298;8.514;2023-10-19T05:50:00;18.5;;;11.9;;
69197;SDS011;56311;50.298;8.514;2023-10-19T05:52:00;17.8;;;11.8;;
69197;SDS011;56311;50.298;8.514;2023-10-19T05:54:00;17.1;;;11.9;;
69197;SDS011;56311;50.298;8.514;2023-10-19T05:56:00;16.7;;;11.5;;
69197;SDS011;56311;50.298;8.514;2023-10-19T05:58:00;17.4;;;11.5;;
69197;SDS011;56311;50.298;8.514;2023-10-19T06:00:00;20.4;;;10.7;;
69197;SDS011;56311;50.298;8.514;2023-10-19T06:02:00;18.6;;;11.0;;
69197;SDS011;56311;50.298;8.514;2023-10-19T06:04:00;18.6;;;10.5;;
69197;SDS011;56311;50.298;8.514;2023-10-19T06:06:00;18.2;;;10.8;;
69197;SDS011;56311;50.298;8.514;2023-10-19T06:08:00;17.1;;;10.6;;
69197;SDS011;56311;50.298;8.514;2023-10-19T06:10:00;16.4;;;10.6;;
69197;SDS011;56311;50.298;8.514;2023-10-19T06:12:01;17.8;;;10.9;;
69197;SDS011;56311;50.298;8.514;2023-10-19T06:14:00;17.4;;;10.4;;
69197;SDS011;56311;50.298;8.514;2023-10-19T06:16:00;15.7;;;10.8;;
69197;SDS011;56311;50.298;8.514;2023-10-19T06:18:00;16.6;;;10.7;;
69197;SDS011;56311;50.298;8.514;2023-10-19T06:20:00;17.3;;;10.9;;
69197;SDS011;56311;50.298;8.514;2023-10-19T06:22:00;16.9;;;12.0;;
69197;SDS011;56311;50.298;8.514;2023-10-19T06:24:00;19.2;;;11.5;;
69197;SDS011;56311;50.298;8.514;2023-10-19T06:26:00;19.9;;;12.4;;
69197;SDS011;56311;50.298;8.514;2023-10-19T06:28:00;19.6;;;12.2;;
69197;SDS011;56311;50.298;8.514;2023-10-19T06:30:00;18.3;;;12.2;;
69197;SDS011;56311;50.298;8.514;2023-10-19T06:32:00;18.8;;;12.5;;
69197;SDS011;56311;50.298;8.514;2023-10-19T06:34:00;18.9;;;12.5;;
69197;SDS011;56311;50.298;8.514;2023-10-19T06:36:00;22.6;;;13.2;;
69197;SDS011;56311;50.298;8.514;2023-10-19T06:38:00;20.6;;;13.7;;
69197;SDS011;56311;50.298;8.514;2023-10-19T06:40:00;22.5;;;14.4;;
69197;SDS011;56311;50.298;8.514;2023-10-19T06:42:00;21.1;;;14.1;;
69197;SDS011;56311;50.298;8.514;2023-10-19T06:44:00;21.7;;;14.5;;
69197;SDS011;56311;50.298;8.514;2023-10-19T06:46:00;22.6;;;14.7;;
69197;SDS011;56311;50.298;8.514;2023-10-19T06:48:00;22.4;;;14.6;;
69197;SDS011;56311;50.298;8.514;2023-10-19T06:50:00;20.9;;;14.5;;
69197;SDS011;56311;50.298;8.514;2023-10-19T06:52:00;22.6;;;14.5;;
69197;SDS011;56311;50.298;8.514;2023-10-19T06:54:00;23.0;;;14.8;;
69197;SDS011;56311;50.298;8.514;2023-10-19T06:56:00;21.6;;;14.9;;
69197;SDS011;56311;50.298;8.514;2023-10-19T06:58:00;19.2;;;13.9;;
69197;SDS011;56311;50.298;8.514;2023-10-19T07:00:00;23.2;;;14.3;;
69197;SDS011;56311;50.298;8.514;2023-10-19T07:02:00;19.5;;;13.6;;
69197;SDS011;56311;50.298;8.514;2023-10-19T07:04:00;20.6;;;14.0;;
69197;SDS011;56311;50.298;8.514;2023-10-19T07:06:00;19.9;;;13.5;;
69197;SDS011;56311;50.298;8.514;2023-10-19T07:08:00;21.3;;;13.7;;
69197;SDS011;56311;50.298;8.514;2023-10-19T07:10:00;18.7;;;13.1;;
69197;SDS011;56311;50.298;8.514;2023-10-19T07:12:00;19.7;;;13.6;;
69197;SDS011;56311;50.298;8.514;2023-10-19T07:14:00;19.6;;;13.6;;
69197;SDS011;56311;50.298;8.514;2023-10-19T07:16:00;20.0;;;13.5;;
69197;SDS011;56311;50.298;8.514;2023-10-19T07:18:01;20.7;;;13.0;;
69197;SDS011;56311;50.298;8.514;2023-10-19T07:20:00;19.7;;;14.0;;
69197;SDS011;56311;50.298;8.514;2023-10-19T07:22:00;23.0;;;14.9;;
69197;SDS011;56311;50.298;8.514;2023-10-19T07:24:00;20.8;;;14.2;;
69197;SDS011;56311;50.298;8.514;2023-10-19T07:26:00;20.2;;;14.4;;
69197;SDS011;56311;50.298;8.514;2023-10-19T07:28:00;22.4;;;14.7;;
69197;SDS011;56311;50.298;8.514;2023-10-19T07:30:00;19.9;;;14.7;;
69197;SDS011;56311;50.298;8.514;2023-10-19T07:32:00;22.8;;;15.2;;
69197;SDS011;56311;50.298;8.514;2023-10-19T07:34:00;21.5;;;15.1;;
69197;SDS011;56311;50.298;8.514;2023-10-19T07:36:00;21.0;;;14.9;;
69197;SDS011;56311;50.298;8.514;2023-10-19T07:38:00;22.1;;;15.0;;
69197;SDS011;56311;50.298;8.514;2023-10-19T07:40:00;20.3;;;14.5;;
69197;SDS011;56311;50.298;8.514;2023-10-19T07:42:00;21.8;;;14.2;;
69197;SDS011;56311;50.298;8.514;2023-10-19T07:44:00;20.1;;;15.1;;
69197;SDS011;56311;50.298;8.514;2023-10-19T07:46:00;20.5;;;15.4;;
69197;SDS011;56311;50.298;8.514;2023-10-19T07:48:00;21.0;;;15.4;;
69197;SDS011;56311;50.298;8.514;2023-10-19T07:50:00;22.9;;;16.3;;
69197;SDS011;56311;50.298;8.514;2023-10-19T07:52:00;22.8;;;15.9;;
69197;SDS011;56311;50.298;8.514;2023-10-19T07:54:00;23.7;;;15.8;;
69197;SDS011;56311;50.298;8.514;2023-10-19T07:56:00;23.7;;;16.1;;
69197;SDS011;56311;50.298;8.514;2023-10-19T07:58:00;22.7;;;14.7;;
69197;SDS011;56311;50.298;8.514;2023-10-19T08:00:00;19.2;;;14.2;;
69197;SDS011;56311;50.298;8.514;2023-10-19T08:02:00;21.5;;;15.0;;
69197;SDS011;56311;50.298;8.514;2023-10-19T08:04:00;19.6;;;14.3;;
69197;SDS011;56311;50.298;8.514;2023-10-19T08:06:00;19.9;;;14.1;;
69197;SDS011;56311;50.298;8.514;2023-10-19T08:08:00;20.6;;;13.6;;
69197;SDS011;56311;50.298;8.514;2023-10-19T08:10:00;20.5;;;14.4;;
69197;SDS011;56311;50.298;8.514;2023-10-19T08:12:00;21.3;;;15.0;;
69197;SDS011;56311;50.298;8.514;2023-10-19T08:14:00;22.9;;;15.8;;
69197;SDS011;56311;50.298;8.514;2023-10-19T08:16:00;23.9;;;16.0;;
69197;SDS011;56311;50.298;8.514;2023-10-19T08:18:00;24.2;;;16.0;;
69197;SDS011;56311;50.298;8.514;2023-10-19T08:20:00;23.8;;;15.9;;
69197;SDS011;56311;50.298;8.514;2023-10-19T08:22:00;22.8;;;15.8;;
69197;SDS011;56311;50.298;8.514;2023-10-19T08:24:00;21.6;;;15.8;;
69197;SDS011;56311;50.298;8.514;2023-10-19T08:26:00;22.3;;;16.1;;
69197;SDS011;56311;50.298;8.514;2023-10-19T08:28:00;22.2;;;15.8;;
69197;SDS011;56311;50.298;8.514;2023-10-19T08:30:01;26.4;;;16.8;;
69197;SDS011;56311;50.298;8.514;2023-10-19T08:32:00;23.9;;;16.5;;
69197;SDS011;56311;50.298;8.514;2023-10-19T08:34:00;24.9;;;16.9;;
69197;SDS011;56311;50.298;8.514;2023-10-19T08:36:00;25.7;;;16.6;;
69197;SDS011;56311;50.298;8.514;2023-10-19T08:38:00;24.1;;;16.2;;
69197;SDS011;56311;50.298;8.514;2023-10-19T08:40:00;24.6;;;17.2;;
69197;SDS011;56311;50.298;8.514;2023-10-19T08:42:01;21.7;;;15.9;;
69197;SDS011;56311;50.298;8.514;2023-10-19T08:44:00;27.4;;;17.0;;
69197;SDS011;56311;50.298;8.514;2023-10-19T08:46:00;22.0;;;16.0;;
69197;SDS011;56311;50.298;8.514;2023-10-19T08:48:00;21.8;;;14.9;;
69197;SDS011;56311;50.298;8.514;2023-10-19T08:50:00;21.6;;;14.8;;
69197;SDS011;56311;50.298;8.514;2023-10-19T08:52:00;21.5;;;15.0;;
69197;SDS011;56311;50.298;8.514;2023-10-19T08:54:00;20.2;;;14.2;;
69197;SDS011;56311;50.298;8.514;2023-10-19T08:56:00;18.0;;;13.2;;
69197;SDS011;56311;50.298;8.514;2023-10-19T08:58:00;16.4;;;11.8;;
69197;SDS011;56311;50.298;8.514;2023-10-19T09:00:00;17.2;;;11.9;;
69197;SDS011;56311;50.298;8.514;2023-10-19T09:02:00;17.1;;;12.0;;
69197;SDS011;56311;50.298;8.514;2023-10-19T09:04:00;17.3;;;11.6;;
69197;SDS011;56311;50.298;8.514;2023-10-19T09:06:01;17.5;;;12.3;;
69197;SDS011;56311;50.298;8.514;2023-10-19T09:08:00;16.2;;;11.7;;
69197;SDS011;56311;50.298;8.514;2023-10-19T09:10:00;15.8;;;10.5;;
69197;SDS011;56311;50.298;8.514;2023-10-19T09:12:00;17.5;;;10.2;;
69197;SDS011;56311;50.298;8.514;2023-10-19T09:14:01;17.1;;;9.5;;
69197;SDS011;56311;50.298;8.514;2023-10-19T09:16:04;14.9;;;9.5;;
69197;SDS011;56311;50.298;8.514;2023-10-19T09:18:06;14.6;;;9.2;;
69197;SDS011;56311;50.298;8.514;2023-10-19T09:20:00;13.1;;;8.4;;
69197;SDS011;56311;50.298;8.514;2023-10-19T09:22:00;12.3;;;7.4;;
69197;SDS011;56311;50.298;8.514;2023-10-19T09:24:00;11.5;;;7.3;;
69197;SDS011;56311;50.298;8.514;2023-10-19T09:26:01;11.7;;;6.8;;
69197;SDS011;56311;50.298;8.514;2023-10-19T09:28:00;9.1;;;5.7;;
69197;SDS011;56311;50.298;8.514;2023-10-19T09:30:00;9.8;;;5.1;;
69197;SDS011;56311;50.298;8.514;2023-10-19T09:32:01;10.8;;;3.7;;
69197;SDS011;56311;50.298;8.514;2023-10-19T09:34:00;8.2;;;3.8;;
69197;SDS011;56311;50.298;8.514;2023-10-19T09:36:00;9.0;;;3.4;;
69197;SDS011;56311;50.298;8.514;2023-10-19T09:38:00;8.1;;;3.3;;
69197;SDS011;56311;50.298;8.514;2023-10-19T09:40:00;8.1;;;3.3;;
69197;SDS011;56311;50.298;8.514;2023-10-19T09:42:00;14.9;;;7.9;;
69197;SDS011;56311;50.298;8.514;2023-10-19T09:44:01;12.6;;;8.4;;
69197;SDS011;56311;50.298;8.514;2023-10-19T09:46:00;11.9;;;7.7;;
69197;SDS011;56311;50.298;8.514;2023-10-19T09:48:00;11.9;;;7.7;;
69197;SDS011;56311;50.298;8.514;2023-10-19T09:50:00;11.1;;;6.7;;
69197;SDS011;56311;50.298;8.514;2023-10-19T09:52:00;12.1;;;6.7;;
69197;SDS011;56311;50.298;8.514;2023-10-19T09:54:00;10.5;;;8.0;;
69197;SDS011;56311;50.298;8.514;2023-10-19T09:56:00;12.5;;;7.9;;
69197;SDS011;56311;50.298;8.514;2023-10-19T09:58:02;12.0;;;8.5;;
69197;SDS011;56311;50.298;8.514;2023-10-19T10:00:02;12.7;;;8.1;;
69197;SDS011;56311;50.298;8.514;2023-10-19T10:02:03;12.1;;;7.9;;
69197;SDS011;56311;50.298;8.514;2023-10-19T10:04:00;11.2;;;7.8;;
69197;SDS011;56311;50.298;8.514;2023-10-19T10:06:00;12.2;;;8.2;;
69197;SDS011;56311;50.298;8.514;2023-10-19T10:10:00;14.1;;;8.9;;
69197;SDS011;56311;50.298;8.514;2023-10-19T10:14:00;13.6;;;9.0;;
69197;SDS011;56311;50.298;8.514;2023-10-19T10:16:00;12.0;;;7.0;;
69197;SDS011;56311;50.298;8.514;2023-10-19T10:18:11;10.1;;;6.5;;
69197;SDS011;56311;50.298;8.514;2023-10-19T10:22:04;11.4;;;7.0;;
69197;SDS011;56311;50.298;8.514;2023-10-19T10:24:02;13.1;;;8.3;;
69197;SDS011;56311;50.298;8.514;2023-10-19T10:26:00;15.3;;;9.4;;
69197;SDS011;56311;50.298;8.514;2023-10-19T10:28:00;12.1;;;8.9;;
69197;SDS011;56311;50.298;8.514;2023-10-19T10:30:00;14.2;;;8.9;;
69197;SDS011;56311;50.298;8.514;2023-10-19T10:32:00;15.6;;;9.7;;
69197;SDS011;56311;50.298;8.514;2023-10-19T10:34:00;14.6;;;9.4;;
69197;SDS011;56311;50.298;8.514;2023-10-19T10:36:00;13.7;;;9.9;;
69197;SDS011;56311;50.298;8.514;2023-10-19T10:38:00;15.9;;;10.1;;
69197;SDS011;56311;50.298;8.514;2023-10-19T10:40:00;13.2;;;9.2;;
69197;SDS011;56311;50.298;8.514;2023-10-19T10:42:01;14.9;;;9.1;;
69197;SDS011;56311;50.298;8.514;2023-10-19T10:44:00;12.6;;;8.5;;
69197;SDS011;56311;50.298;8.514;2023-10-19T10:46:02;12.9;;;8.2;;
69197;SDS011;56311;50.298;8.514;2023-10-19T10:48:01;13.2;;;8.9;;
69197;SDS011;56311;50.298;8.514;2023-10-19T10:50:00;15.5;;;10.3;;
69197;SDS011;56311;50.298;8.514;2023-10-19T10:52:00;15.5;;;10.3;;
69197;SDS011;56311;50.298;8.514;2023-10-19T10:54:00;15.2;;;10.3;;
69197;SDS011;56311;50.298;8.514;2023-10-19T10:56:00;14.3;;;9.9;;
69197;SDS011;56311;50.298;8.514;2023-10-19T10:58:01;13.9;;;8.9;;
69197;SDS011;56311;50.298;8.514;2023-10-19T11:00:01;13.7;;;9.2;;
69197;SDS011;56311;50.298;8.514;2023-10-19T11:02:00;13.6;;;8.7;;
69197;SDS011;56311;50.298;8.514;2023-10-19T11:04:08;17.7;;;11.0;;
69197;SDS011;56311;50.298;8.514;2023-10-19T11:06:03;12.8;;;8.3;;
69197;SDS011;56311;50.298;8.514;2023-10-19T11:08:04;15.8;;;8.7;;
69197;SDS011;56311;50.298;8.514;2023-10-19T11:10:00;14.4;;;8.8;;
69197;SDS011;56311;50.298;8.514;2023-10-19T11:12:09;12.3;;;8.0;;
69197;SDS011;56311;50.298;8.514;2023-10-19T11:14:08;15.1;;;10.4;;
69197;SDS011;56311;50.298;8.514;2023-10-19T11:16:02;12.8;;;7.9;;
69197;SDS011;56311;50.298;8.514;2023-10-19T11:18:00;14.2;;;9.5;;
69197;SDS011;56311;50.298;8.514;2023-10-19T11:20:00;14.7;;;9.9;;
69197;SDS011;56311;50.298;8.514;2023-10-19T11:22:00;15.0;;;9.5;;
69197;SDS011;56311;50.298;8.514;2023-10-19T11:24:01;16.4;;;10.0;;
69197;SDS011;56311;50.298;8.514;2023-10-19T11:26:00;14.6;;;10.6;;
69197;SDS011;56311;50.298;8.514;2023-10-19T11:28:00;unknown;;;unknown;;
69197;SDS011;56311;50.298;8.514;2023-10-19T11:30:00;14.5;;;9.4;;
69197;SDS011;56311;50.298;8.514;2023-10-19T11:32:00;15.5;;;10.2;;
69197;SDS011;56311;50.298;8.514;2023-10-19T11:34:00;14.9;;;9.8;;
69197;SDS011;56311;50.298;8.514;2023-10-19T11:36:01;14.0;;;9.7;;
69197;SDS011;56311;50.298;8.514;2023-10-19T11:38:00;14.8;;;8.6;;
69197;SDS011;56311;50.298;8.514;2023-10-19T11:40:00;13.7;;;8.7;;
69197;SDS011;56311;50.298;8.514;2023-10-19T11:42:00;14.2;;;8.0;;
69197;SDS011;56311;50.298;8.514;2023-10-19T11:44:00;11.7;;;6.2;;
69197;SDS011;56311;50.298;8.514;2023-10-19T11:46:00;14.1;;;6.0;;
69197;SDS011;56311;50.298;8.514;2023-10-19T11:48:00;11.0;;;6.3;;
69197;SDS011;56311;50.298;8.514;2023-10-19T11:50:00;13.2;;;6.2;;
69197;SDS011;56311;50.298;8.514;2023-10-19T11:52:00;11.1;;;5.6;;
69197;SDS011;56311;50.298;8.514;2023-10-19T11:54:00;9.9;;;5.8;;
69197;SDS011;56311;50.298;8.514;2023-10-19T11:56:01;9.7;;;5.2;;
69197;SDS011;56311;50.298;8.514;2023-10-19T11:58:00;9.2;;;4.0;;
69197;SDS011;56311;50.298;8.514;2023-10-19T12:00:00;11.0;;;3.7;;
69197;SDS011;56311;50.298;8.514;2023-10-19T12:02:01;8.5;;;3.6;;
69197;SDS011;56311;50.298;8.514;2023-10-19T12:04:00;10.1;;;3.4;;
69197;SDS011;56311;50.298;8.514;2023-10-19T12:06:00;9.5;;;3.4;;
69197;SDS011;56311;50.298;8.514;2023-10-19T12:08:00;8.7;;;3.1;;
69197;SDS011;56311;50.298;8.514;2023-10-19T12:10:00;9.5;;;2.9;;
69197;SDS011;56311;50.298;8.514;2023-10-19T12:12:01;8.6;;;3.0;;
69197;SDS011;56311;50.298;8.514;2023-10-19T12:14:00;8.4;;;2.6;;